createdAt,value
2022-11-19T00:00:16.530Z,962.95
2022-11-19T00:01:16.485Z,962.96
2022-11-19T00:02:16.535Z,962.87
2022-11-19T00:03:16.444Z,962.95
2022-11-19T00:04:16.413Z,962.95
2022-11-19T00:05:16.421Z,963.01
2022-11-19T00:06:16.377Z,962.98
2022-11-19T00:07:16.385Z,962.99
2022-11-19T00:08:16.337Z,962.99
2022-11-19T00:09:17.018Z,963.02
2022-11-19T00:10:16.321Z,962.98
2022-11-19T00:11:16.276Z,962.97
2022-11-19T00:12:16.252Z,963.00
2022-11-19T00:13:16.230Z,962.95
2022-11-19T00:14:16.217Z,963.01
2022-11-19T00:15:16.214Z,962.92
2022-11-19T00:16:16.167Z,962.95
2022-11-19T00:17:16.147Z,963.01
2022-11-19T00:18:16.129Z,962.95
2022-11-19T00:19:16.236Z,962.97
2022-11-19T00:20:16.122Z,962.99
2022-11-19T00:21:16.070Z,963.03
2022-11-19T00:22:16.043Z,963.00
2022-11-19T00:23:16.022Z,962.98
2022-11-19T00:24:16.001Z,963.04
2022-11-19T00:25:16.010Z,962.98
2022-11-19T00:26:15.961Z,963.02
2022-11-19T00:27:15.941Z,962.99
2022-11-19T00:28:15.920Z,963.00
2022-11-19T00:29:18.137Z,963.03
2022-11-19T00:30:40.692Z,963.01
2022-11-19T00:31:17.857Z,963.02
2022-11-19T00:32:15.838Z,962.97
2022-11-19T00:33:15.822Z,963.04
2022-11-19T00:34:15.799Z,963.02
2022-11-19T00:35:15.803Z,963.03
2022-11-19T00:36:15.760Z,963.06
2022-11-19T00:37:15.741Z,963.00
2022-11-19T00:38:15.723Z,963.01
2022-11-19T00:39:15.699Z,963.03
2022-11-19T00:40:15.703Z,963.06
2022-11-19T00:41:15.655Z,963.10
2022-11-19T00:42:15.638Z,963.07
2022-11-19T00:43:15.614Z,963.02
2022-11-19T00:44:15.603Z,963.00
2022-11-19T00:45:15.604Z,963.08
2022-11-19T00:46:15.554Z,963.10
2022-11-19T00:47:15.535Z,963.13
2022-11-19T00:48:15.512Z,963.10
2022-11-19T00:49:15.490Z,963.19
2022-11-19T00:50:15.499Z,963.15
2022-11-19T00:51:15.456Z,963.22
2022-11-19T00:52:15.428Z,963.21
2022-11-19T00:53:15.414Z,963.21
2022-11-19T00:54:15.392Z,963.18
2022-11-19T00:55:15.397Z,963.19
2022-11-19T00:56:15.351Z,963.22
2022-11-19T00:57:15.331Z,963.20
2022-11-19T00:58:15.319Z,963.20
2022-11-19T00:59:15.287Z,963.29
2022-11-19T01:00:15.295Z,963.27
2022-11-19T01:01:15.296Z,963.25
2022-11-19T01:02:15.226Z,963.32
2022-11-19T01:03:15.208Z,963.26
2022-11-19T01:04:15.190Z,963.34
2022-11-19T01:05:15.201Z,963.34
2022-11-19T01:06:18.778Z,963.35
2022-11-19T01:07:16.168Z,963.39
2022-11-19T01:08:15.115Z,963.35
2022-11-19T01:09:15.086Z,963.42
2022-11-19T01:10:15.091Z,963.44
2022-11-19T01:11:15.050Z,963.34
2022-11-19T01:12:15.026Z,963.39
2022-11-19T01:13:15.005Z,963.44
2022-11-19T01:14:14.983Z,963.36
2022-11-19T01:15:14.985Z,963.35
2022-11-19T01:16:14.940Z,963.40
2022-11-19T01:17:14.923Z,963.35
2022-11-19T01:18:14.900Z,963.40
2022-11-19T01:19:15.051Z,963.43
2022-11-19T01:20:14.961Z,963.44
2022-11-19T01:21:14.838Z,963.39
2022-11-19T01:22:14.817Z,963.49
2022-11-19T01:23:14.801Z,963.46
2022-11-19T01:24:14.778Z,963.48
2022-11-19T01:25:14.785Z,963.51
2022-11-19T01:26:14.739Z,963.51
2022-11-19T01:27:14.720Z,963.43
2022-11-19T01:28:14.700Z,963.52
2022-11-19T01:29:14.680Z,963.47
2022-11-19T01:30:14.681Z,963.49
2022-11-19T01:31:14.635Z,963.45
2022-11-19T01:32:14.609Z,963.41
2022-11-19T01:33:14.590Z,963.45
2022-11-19T01:34:14.575Z,963.42
2022-11-19T01:35:14.577Z,963.39
2022-11-19T01:36:14.526Z,963.42
2022-11-19T01:37:14.513Z,963.43
2022-11-19T01:38:14.490Z,963.44
2022-11-19T01:39:14.466Z,963.42
2022-11-19T01:40:14.471Z,963.42
2022-11-19T01:41:14.427Z,963.45
2022-11-19T01:42:14.405Z,963.37
2022-11-19T01:43:14.386Z,963.46
2022-11-19T01:44:14.363Z,963.43
2022-11-19T01:45:14.369Z,963.43
2022-11-19T01:46:14.321Z,963.43
2022-11-19T01:47:14.298Z,963.37
2022-11-19T01:48:14.276Z,963.43
2022-11-19T01:49:14.256Z,963.46
2022-11-19T01:50:14.262Z,963.36
2022-11-19T01:51:14.213Z,963.46
2022-11-19T01:52:14.196Z,963.42
2022-11-19T01:53:14.173Z,963.43
2022-11-19T01:54:14.155Z,963.43
2022-11-19T01:55:14.155Z,963.44
2022-11-19T01:56:14.116Z,963.44
2022-11-19T01:57:15.094Z,963.41
2022-11-19T01:58:14.069Z,963.45
2022-11-19T01:59:14.045Z,963.40
2022-11-19T02:00:14.052Z,963.44
2022-11-19T02:01:14.026Z,963.37
2022-11-19T02:02:13.982Z,963.45
2022-11-19T02:03:13.964Z,963.47
2022-11-19T02:04:13.940Z,963.51
2022-11-19T02:05:13.950Z,963.49
2022-11-19T02:06:13.898Z,963.54
2022-11-19T02:07:13.920Z,963.55
2022-11-19T02:08:13.855Z,963.54
2022-11-19T02:09:13.840Z,963.51
2022-11-19T02:10:13.841Z,963.48
2022-11-19T02:11:13.792Z,963.57
2022-11-19T02:12:13.774Z,963.53
2022-11-19T02:13:13.753Z,963.55
2022-11-19T02:14:13.732Z,963.48
2022-11-19T02:15:13.739Z,963.52
2022-11-19T02:16:13.688Z,963.47
2022-11-19T02:17:13.670Z,963.56
2022-11-19T02:18:13.648Z,963.55
2022-11-19T02:19:13.625Z,963.54
2022-11-19T02:20:13.628Z,963.52
2022-11-19T02:21:13.580Z,963.51
2022-11-19T02:22:13.589Z,963.45
2022-11-19T02:23:13.543Z,963.49
2022-11-19T02:24:13.521Z,963.47
2022-11-19T02:25:13.523Z,963.48
2022-11-19T02:26:13.479Z,963.44
2022-11-19T02:27:13.457Z,963.56
2022-11-19T02:28:13.436Z,963.55
2022-11-19T02:29:13.414Z,963.54
2022-11-19T02:30:13.422Z,963.49
2022-11-19T02:31:13.375Z,963.42
2022-11-19T02:32:13.355Z,963.50
2022-11-19T02:33:13.328Z,963.54
2022-11-19T02:34:13.308Z,963.53
2022-11-19T02:35:13.314Z,963.55
2022-11-19T02:36:13.269Z,963.57
2022-11-19T02:37:13.247Z,963.60
2022-11-19T02:38:13.225Z,963.54
2022-11-19T02:39:13.213Z,963.56
2022-11-19T02:40:13.210Z,963.55
2022-11-19T02:41:13.161Z,963.61
2022-11-19T02:42:13.144Z,963.61
2022-11-19T02:43:13.145Z,963.62
2022-11-19T02:44:13.098Z,963.60
2022-11-19T02:45:13.110Z,963.59
2022-11-19T02:46:13.057Z,963.56
2022-11-19T02:47:13.033Z,963.68
2022-11-19T02:48:13.018Z,963.58
2022-11-19T02:49:12.991Z,963.64
2022-11-19T02:50:12.998Z,963.64
2022-11-19T02:51:12.954Z,963.69
2022-11-19T02:52:12.934Z,963.67
2022-11-19T02:53:12.936Z,963.68
2022-11-19T02:54:12.890Z,963.66
2022-11-19T02:55:12.910Z,963.67
2022-11-19T02:56:12.852Z,963.61
2022-11-19T02:57:12.824Z,963.66
2022-11-19T02:58:12.804Z,963.68
2022-11-19T02:59:12.780Z,963.76
2022-11-19T03:00:12.767Z,963.68
2022-11-19T03:01:12.784Z,963.74
2022-11-19T03:02:12.724Z,963.69
2022-11-19T03:03:12.700Z,963.78
2022-11-19T03:04:12.678Z,963.73
2022-11-19T03:05:12.663Z,963.80
2022-11-19T03:06:12.672Z,963.78
2022-11-19T03:07:12.678Z,963.76
2022-11-19T03:08:12.630Z,963.74
2022-11-19T03:09:12.584Z,963.77
2022-11-19T03:10:12.561Z,963.76
2022-11-19T03:11:12.569Z,963.70
2022-11-19T03:12:12.521Z,963.73
2022-11-19T03:13:12.501Z,963.71
2022-11-19T03:14:12.480Z,963.72
2022-11-19T03:15:12.456Z,963.80
2022-11-19T03:16:12.461Z,963.82
2022-11-19T03:17:12.425Z,963.85
2022-11-19T03:18:12.395Z,963.84
2022-11-19T03:19:12.433Z,963.75
2022-11-19T03:20:12.351Z,963.87
2022-11-19T03:21:12.355Z,963.86
2022-11-19T03:22:12.307Z,963.83
2022-11-19T03:23:12.296Z,963.83
2022-11-19T03:24:12.265Z,963.86
2022-11-19T03:25:12.252Z,963.83
2022-11-19T03:26:12.252Z,963.87
2022-11-19T03:27:12.207Z,963.87
2022-11-19T03:28:12.174Z,963.87
2022-11-19T03:29:12.157Z,963.90
2022-11-19T03:30:12.138Z,963.85
2022-11-19T03:31:12.140Z,963.87
2022-11-19T03:32:12.099Z,963.87
2022-11-19T03:33:12.083Z,963.84
2022-11-19T03:34:12.059Z,963.87
2022-11-19T03:35:12.034Z,963.88
2022-11-19T03:36:12.037Z,963.90
2022-11-19T03:37:11.998Z,963.85
2022-11-19T03:38:11.972Z,963.85
2022-11-19T03:39:11.948Z,963.80
2022-11-19T03:40:11.929Z,963.82
2022-11-19T03:41:11.933Z,963.91
2022-11-19T03:42:11.885Z,963.89
2022-11-19T03:43:11.865Z,963.81
2022-11-19T03:44:11.850Z,963.82
2022-11-19T03:45:11.823Z,963.86
2022-11-19T03:46:11.829Z,963.86
2022-11-19T03:47:11.782Z,963.91
2022-11-19T03:48:11.763Z,963.91
2022-11-19T03:49:11.734Z,963.96
2022-11-19T03:50:11.714Z,963.87
2022-11-19T03:51:11.720Z,963.88
2022-11-19T03:52:11.674Z,963.83
2022-11-19T03:53:11.649Z,963.79
2022-11-19T03:54:11.631Z,963.84
2022-11-19T03:55:11.608Z,963.84
2022-11-19T03:56:11.617Z,963.88
2022-11-19T03:57:11.568Z,963.84
2022-11-19T03:58:11.547Z,963.81
2022-11-19T03:59:11.526Z,963.85
2022-11-19T04:00:11.507Z,963.88
2022-11-19T04:01:11.511Z,963.83
2022-11-19T04:02:11.517Z,963.87
2022-11-19T04:03:11.442Z,963.87
2022-11-19T04:04:11.450Z,963.88
2022-11-19T04:05:11.405Z,963.89
2022-11-19T04:06:11.409Z,963.88
2022-11-19T04:07:11.415Z,963.87
2022-11-19T04:08:11.341Z,963.87
2022-11-19T04:09:11.349Z,963.86
2022-11-19T04:10:11.298Z,963.90
2022-11-19T04:11:13.937Z,963.85
2022-11-19T04:12:11.262Z,963.88
2022-11-19T04:13:11.238Z,963.85
2022-11-19T04:14:11.216Z,963.85
2022-11-19T04:15:11.196Z,963.93
2022-11-19T04:16:11.204Z,963.88
2022-11-19T04:17:11.157Z,963.97
2022-11-19T04:18:11.134Z,963.97
2022-11-19T04:19:11.114Z,964.00
2022-11-19T04:20:11.095Z,963.98
2022-11-19T04:21:11.105Z,964.08
2022-11-19T04:22:11.055Z,964.01
2022-11-19T04:23:11.037Z,964.03
2022-11-19T04:24:11.040Z,964.02
2022-11-19T04:25:10.993Z,963.99
2022-11-19T04:26:10.997Z,963.96
2022-11-19T04:27:10.946Z,963.96
2022-11-19T04:28:10.929Z,963.91
2022-11-19T04:29:10.905Z,963.89
2022-11-19T04:30:10.885Z,963.97
2022-11-19T04:31:16.437Z,963.84
2022-11-19T04:32:12.843Z,963.92
2022-11-19T04:33:10.829Z,963.96
2022-11-19T04:34:10.806Z,964.04
2022-11-19T04:35:10.782Z,964.03
2022-11-19T04:36:10.796Z,964.01
2022-11-19T04:37:10.746Z,964.06
2022-11-19T04:38:10.722Z,964.05
2022-11-19T04:39:10.702Z,964.03
2022-11-19T04:40:10.682Z,964.00
2022-11-19T04:41:10.685Z,964.03
2022-11-19T04:42:10.640Z,964.07
2022-11-19T04:43:10.619Z,964.08
2022-11-19T04:44:10.601Z,964.05
2022-11-19T04:45:10.575Z,964.08
2022-11-19T04:46:10.584Z,964.10
2022-11-19T04:47:10.536Z,964.11
2022-11-19T04:48:10.514Z,964.15
2022-11-19T04:49:10.498Z,964.18
2022-11-19T04:50:10.475Z,964.15
2022-11-19T04:51:10.482Z,964.11
2022-11-19T04:52:10.433Z,964.20
2022-11-19T04:53:10.413Z,964.16
2022-11-19T04:54:10.397Z,964.17
2022-11-19T04:55:10.376Z,964.21
2022-11-19T04:56:10.379Z,964.20
2022-11-19T04:57:10.329Z,964.13
2022-11-19T04:58:10.306Z,964.15
2022-11-19T04:59:10.287Z,964.20
2022-11-19T05:00:10.263Z,964.17
2022-11-19T05:01:10.295Z,964.19
2022-11-19T05:02:10.225Z,964.17
2022-11-19T05:03:10.200Z,964.17
2022-11-19T05:04:10.180Z,964.13
2022-11-19T05:05:10.162Z,964.07
2022-11-19T05:06:10.156Z,964.15
2022-11-19T05:07:10.165Z,964.07
2022-11-19T05:08:10.100Z,964.12
2022-11-19T05:09:10.091Z,964.17
2022-11-19T05:10:10.051Z,964.16
2022-11-19T05:11:10.053Z,964.28
2022-11-19T05:12:10.009Z,964.26
2022-11-19T05:13:09.991Z,964.21
2022-11-19T05:14:09.975Z,964.30
2022-11-19T05:15:09.972Z,964.29
2022-11-19T05:16:09.957Z,964.26
2022-11-19T05:17:09.910Z,964.36
2022-11-19T05:18:09.900Z,964.36
2022-11-19T05:19:09.867Z,964.38
2022-11-19T05:20:09.849Z,964.37
2022-11-19T05:21:09.867Z,964.42
2022-11-19T05:22:09.807Z,964.40
2022-11-19T05:23:09.788Z,964.51
2022-11-19T05:24:09.769Z,964.45
2022-11-19T05:25:09.752Z,964.50
2022-11-19T05:26:09.751Z,964.48
2022-11-19T05:27:09.711Z,964.50
2022-11-19T05:28:09.692Z,964.47
2022-11-19T05:29:09.669Z,964.48
2022-11-19T05:30:09.651Z,964.50
2022-11-19T05:31:09.656Z,964.49
2022-11-19T05:32:09.608Z,964.45
2022-11-19T05:33:09.588Z,964.51
2022-11-19T05:34:09.565Z,964.44
2022-11-19T05:35:09.545Z,964.46
2022-11-19T05:36:09.553Z,964.50
2022-11-19T05:37:09.503Z,964.45
2022-11-19T05:38:09.482Z,964.46
2022-11-19T05:39:09.464Z,964.51
2022-11-19T05:40:09.442Z,964.41
2022-11-19T05:41:09.454Z,964.48
2022-11-19T05:42:09.402Z,964.44
2022-11-19T05:43:09.384Z,964.45
2022-11-19T05:44:09.361Z,964.51
2022-11-19T05:45:09.341Z,964.54
2022-11-19T05:46:09.344Z,964.47
2022-11-19T05:47:09.299Z,964.57
2022-11-19T05:48:09.281Z,964.48
2022-11-19T05:49:09.268Z,964.55
2022-11-19T05:50:09.240Z,964.57
2022-11-19T05:51:09.244Z,964.54
2022-11-19T05:52:09.272Z,964.58
2022-11-19T05:53:09.182Z,964.54
2022-11-19T05:54:09.202Z,964.55
2022-11-19T05:55:09.136Z,964.59
2022-11-19T05:56:09.173Z,964.56
2022-11-19T05:57:09.096Z,964.58
2022-11-19T05:58:09.079Z,964.57
2022-11-19T05:59:09.059Z,964.56
2022-11-19T06:00:09.042Z,964.56
2022-11-19T06:01:09.040Z,964.60
2022-11-19T06:02:09.002Z,964.64
2022-11-19T06:03:09.043Z,964.61
2022-11-19T06:04:08.959Z,964.62
2022-11-19T06:05:08.942Z,964.67
2022-11-19T06:06:08.922Z,964.61
2022-11-19T06:07:08.936Z,964.70
2022-11-19T06:08:08.883Z,964.68
2022-11-19T06:09:08.858Z,964.67
2022-11-19T06:10:08.841Z,964.65
2022-11-19T06:11:08.845Z,964.67
2022-11-19T06:12:08.822Z,964.63
2022-11-19T06:13:08.782Z,964.63
2022-11-19T06:14:08.756Z,964.66
2022-11-19T06:15:08.737Z,964.61
2022-11-19T06:16:08.719Z,964.70
2022-11-19T06:17:08.723Z,964.67
2022-11-19T06:18:08.676Z,964.69
2022-11-19T06:19:08.652Z,964.69
2022-11-19T06:20:08.658Z,964.75
2022-11-19T06:21:12.131Z,964.82
2022-11-19T06:22:09.619Z,964.80
2022-11-19T06:23:08.575Z,964.91
2022-11-19T06:24:08.555Z,964.88
2022-11-19T06:25:08.539Z,964.89
2022-11-19T06:26:08.519Z,964.90
2022-11-19T06:27:08.522Z,964.90
2022-11-19T06:28:08.479Z,964.85
2022-11-19T06:29:08.494Z,964.92
2022-11-19T06:30:08.437Z,964.88
2022-11-19T06:31:08.418Z,964.86
2022-11-19T06:32:08.428Z,964.88
2022-11-19T06:33:08.379Z,964.87
2022-11-19T06:34:08.358Z,964.93
2022-11-19T06:35:08.495Z,964.98
2022-11-19T06:36:08.318Z,964.97
2022-11-19T06:37:08.326Z,965.02
2022-11-19T06:38:08.288Z,964.99
2022-11-19T06:39:08.377Z,965.02
2022-11-19T06:40:08.243Z,965.04
2022-11-19T06:41:08.246Z,965.01
2022-11-19T06:42:08.228Z,965.09
2022-11-19T06:43:08.403Z,965.07
2022-11-19T06:44:08.573Z,965.02
2022-11-19T06:45:08.600Z,965.15
2022-11-19T06:46:08.177Z,965.10
2022-11-19T06:47:08.211Z,965.13
2022-11-19T06:48:08.093Z,965.09
2022-11-19T06:49:08.072Z,965.11
2022-11-19T06:50:08.049Z,965.14
2022-11-19T06:51:08.029Z,965.07
2022-11-19T06:52:08.044Z,965.09
2022-11-19T06:53:07.991Z,965.08
2022-11-19T06:54:07.971Z,965.08
2022-11-19T06:55:07.949Z,965.11
2022-11-19T06:56:07.928Z,965.14
2022-11-19T06:57:07.933Z,965.15
2022-11-19T06:58:07.885Z,965.10
2022-11-19T06:59:07.880Z,965.10
2022-11-19T07:00:07.850Z,965.08
2022-11-19T07:01:07.825Z,965.11
2022-11-19T07:02:07.900Z,965.05
2022-11-19T07:03:07.792Z,965.05
2022-11-19T07:04:07.764Z,965.04
2022-11-19T07:05:07.743Z,965.07
2022-11-19T07:06:07.728Z,965.00
2022-11-19T07:07:07.770Z,965.08
2022-11-19T07:08:07.681Z,965.13
2022-11-19T07:09:07.663Z,965.10
2022-11-19T07:10:07.640Z,965.08
2022-11-19T07:11:07.618Z,965.13
2022-11-19T07:12:07.630Z,965.16
2022-11-19T07:13:07.581Z,965.13
2022-11-19T07:14:07.554Z,965.19
2022-11-19T07:15:07.539Z,965.17
2022-11-19T07:16:07.516Z,965.19
2022-11-19T07:17:07.521Z,965.22
2022-11-19T07:18:07.475Z,965.18
2022-11-19T07:19:08.944Z,965.22
2022-11-19T07:20:07.438Z,965.21
2022-11-19T07:21:07.422Z,965.22
2022-11-19T07:22:07.428Z,965.24
2022-11-19T07:23:07.371Z,965.18
2022-11-19T07:24:07.359Z,965.26
2022-11-19T07:25:07.333Z,965.23
2022-11-19T07:26:07.310Z,965.25
2022-11-19T07:27:07.328Z,965.36
2022-11-19T07:28:07.276Z,965.38
2022-11-19T07:29:07.252Z,965.36
2022-11-19T07:30:07.240Z,965.35
2022-11-19T07:31:07.220Z,965.38
2022-11-19T07:32:07.330Z,965.37
2022-11-19T07:33:07.178Z,965.43
2022-11-19T07:34:07.159Z,965.45
2022-11-19T07:35:07.140Z,965.49
2022-11-19T07:36:07.119Z,965.48
2022-11-19T07:37:07.122Z,965.45
2022-11-19T07:38:07.082Z,965.45
2022-11-19T07:39:07.063Z,965.49
2022-11-19T07:40:07.038Z,965.42
2022-11-19T07:41:07.029Z,965.47
2022-11-19T07:42:07.035Z,965.44
2022-11-19T07:43:07.007Z,965.41
2022-11-19T07:44:06.964Z,965.44
2022-11-19T07:45:06.936Z,965.49
2022-11-19T07:46:06.915Z,965.47
2022-11-19T07:47:06.902Z,965.43
2022-11-19T07:48:06.912Z,965.49
2022-11-19T07:49:06.859Z,965.44
2022-11-19T07:50:06.839Z,965.50
2022-11-19T07:51:06.823Z,965.36
2022-11-19T07:52:06.830Z,965.44
2022-11-19T07:53:06.775Z,965.48
2022-11-19T07:54:06.763Z,965.49
2022-11-19T07:55:06.738Z,965.48
2022-11-19T07:56:06.715Z,965.49
2022-11-19T07:57:06.736Z,965.45
2022-11-19T07:58:06.672Z,965.46
2022-11-19T07:59:06.661Z,965.49
2022-11-19T08:00:06.641Z,965.51
2022-11-19T08:01:06.626Z,965.50
2022-11-19T08:02:06.648Z,965.52
2022-11-19T08:03:06.577Z,965.49
2022-11-19T08:04:06.582Z,965.55
2022-11-19T08:05:06.539Z,965.57
2022-11-19T08:06:06.503Z,965.59
2022-11-19T08:07:06.545Z,965.55
2022-11-19T08:08:06.473Z,965.64
2022-11-19T08:09:06.445Z,965.65
2022-11-19T08:10:06.441Z,965.63
2022-11-19T08:11:06.402Z,965.69
2022-11-19T08:12:06.408Z,965.71
2022-11-19T08:13:06.358Z,965.73
2022-11-19T08:14:06.345Z,965.73
2022-11-19T08:15:06.334Z,965.82
2022-11-19T08:16:06.302Z,965.80
2022-11-19T08:17:06.305Z,965.81
2022-11-19T08:18:06.254Z,965.80
2022-11-19T08:19:06.234Z,965.76
2022-11-19T08:20:06.217Z,965.72
2022-11-19T08:21:06.197Z,965.75
2022-11-19T08:22:06.199Z,965.74
2022-11-19T08:23:06.150Z,965.80
2022-11-19T08:24:06.146Z,965.81
2022-11-19T08:25:06.117Z,965.81
2022-11-19T08:26:06.099Z,965.77
2022-11-19T08:27:06.091Z,965.86
2022-11-19T08:28:06.184Z,965.75
2022-11-19T08:29:06.019Z,965.77
2022-11-19T08:30:06.000Z,965.73
2022-11-19T08:31:06.035Z,965.63
2022-11-19T08:32:05.990Z,965.63
2022-11-19T08:33:05.941Z,965.60
2022-11-19T08:34:05.915Z,965.61
2022-11-19T08:35:05.917Z,965.65
2022-11-19T08:36:05.889Z,965.69
2022-11-19T08:37:05.878Z,965.61
2022-11-19T08:38:05.829Z,965.48
2022-11-19T08:39:05.826Z,965.47
2022-11-19T08:40:05.816Z,965.45
2022-11-19T08:41:05.769Z,965.37
2022-11-19T08:42:05.787Z,965.35
2022-11-19T08:43:05.731Z,965.34
2022-11-19T08:44:05.710Z,965.37
2022-11-19T08:45:05.677Z,965.28
2022-11-19T08:46:06.675Z,965.32
2022-11-19T08:47:05.675Z,965.29
2022-11-19T08:48:05.637Z,965.29
2022-11-19T08:49:05.653Z,965.29
2022-11-19T08:50:05.599Z,965.33
2022-11-19T08:51:05.578Z,965.34
2022-11-19T08:52:05.563Z,965.31
2022-11-19T08:53:05.541Z,965.32
2022-11-19T08:54:05.546Z,965.31
2022-11-19T08:55:05.510Z,965.25
2022-11-19T08:56:05.480Z,965.24
2022-11-19T08:57:05.489Z,965.29
2022-11-19T08:58:05.447Z,965.24
2022-11-19T08:59:05.421Z,965.24
2022-11-19T09:00:06.400Z,965.24
2022-11-19T09:01:06.451Z,965.26
2022-11-19T09:02:05.395Z,965.21
2022-11-19T09:03:05.359Z,965.27
2022-11-19T09:04:05.344Z,965.32
2022-11-19T09:05:05.323Z,965.26
2022-11-19T09:06:05.298Z,965.36
2022-11-19T09:07:05.382Z,965.33
2022-11-19T09:08:05.256Z,965.37
2022-11-19T09:09:05.245Z,965.37
2022-11-19T09:10:05.225Z,965.45
2022-11-19T09:11:05.195Z,965.43
2022-11-19T09:12:06.213Z,965.41
2022-11-19T09:13:05.179Z,965.35
2022-11-19T09:14:05.157Z,965.40
2022-11-19T09:15:05.136Z,965.41
2022-11-19T09:16:05.124Z,965.43
2022-11-19T09:17:05.129Z,965.43
2022-11-19T09:18:05.084Z,965.53
2022-11-19T09:19:05.091Z,965.53
2022-11-19T09:20:05.055Z,965.44
2022-11-19T09:21:05.049Z,965.47
2022-11-19T09:22:05.050Z,965.45
2022-11-19T09:23:04.999Z,965.42
2022-11-19T09:24:05.002Z,965.49
2022-11-19T09:25:04.967Z,965.43
2022-11-19T09:26:04.945Z,965.49
2022-11-19T09:27:04.931Z,965.45
2022-11-19T09:28:04.938Z,965.42
2022-11-19T09:29:04.896Z,965.44
2022-11-19T09:30:04.889Z,965.45
2022-11-19T09:31:04.864Z,965.56
2022-11-19T09:32:04.839Z,965.56
2022-11-19T09:33:04.865Z,965.48
2022-11-19T09:34:04.817Z,965.54
2022-11-19T09:35:04.791Z,965.52
2022-11-19T09:36:04.781Z,965.54
2022-11-19T09:37:04.755Z,965.49
2022-11-19T09:38:04.764Z,965.62
2022-11-19T09:39:04.725Z,965.59
2022-11-19T09:40:04.704Z,965.58
2022-11-19T09:41:04.686Z,965.63
2022-11-19T09:42:04.741Z,965.57
2022-11-19T09:43:04.675Z,965.58
2022-11-19T09:44:04.674Z,965.61
2022-11-19T09:45:04.618Z,965.58
2022-11-19T09:46:04.601Z,965.62
2022-11-19T09:47:04.580Z,965.57
2022-11-19T09:48:04.581Z,965.59
2022-11-19T09:49:04.541Z,965.56
2022-11-19T09:50:04.526Z,965.60
2022-11-19T09:51:04.507Z,965.46
2022-11-19T09:52:04.490Z,965.64
2022-11-19T09:53:04.514Z,965.62
2022-11-19T09:54:04.449Z,965.60
2022-11-19T09:55:04.436Z,965.58
2022-11-19T09:56:04.419Z,965.52
2022-11-19T09:57:04.739Z,965.57
2022-11-19T09:58:05.406Z,965.60
2022-11-19T09:59:04.360Z,965.65
2022-11-19T10:00:04.343Z,965.66
2022-11-19T10:01:04.359Z,965.64
2022-11-19T10:02:04.307Z,965.68
2022-11-19T10:03:04.356Z,965.52
2022-11-19T10:04:04.282Z,965.59
2022-11-19T10:05:04.262Z,965.57
2022-11-19T10:06:04.239Z,965.64
2022-11-19T10:07:04.312Z,965.62
2022-11-19T10:08:04.230Z,965.68
2022-11-19T10:09:04.230Z,965.64
2022-11-19T10:10:07.832Z,965.67
2022-11-19T10:11:06.149Z,965.73
2022-11-19T10:12:04.135Z,965.69
2022-11-19T10:13:04.156Z,965.71
2022-11-19T10:14:04.096Z,965.69
2022-11-19T10:15:04.104Z,965.66
2022-11-19T10:16:04.064Z,965.62
2022-11-19T10:17:04.034Z,965.65
2022-11-19T10:18:04.059Z,965.59
2022-11-19T10:19:04.101Z,965.62
2022-11-19T10:20:03.987Z,965.61
2022-11-19T10:21:03.970Z,965.62
2022-11-19T10:22:03.952Z,965.64
2022-11-19T10:23:03.964Z,965.61
2022-11-19T10:24:03.918Z,965.51
2022-11-19T10:25:03.895Z,965.64
2022-11-19T10:26:03.884Z,965.59
2022-11-19T10:27:08.491Z,965.64
2022-11-19T10:28:04.866Z,965.63
2022-11-19T10:29:03.825Z,965.59
2022-11-19T10:30:03.802Z,965.60
2022-11-19T10:31:03.786Z,965.57
2022-11-19T10:32:03.765Z,965.55
2022-11-19T10:33:03.776Z,965.53
2022-11-19T10:34:03.731Z,965.46
2022-11-19T10:35:03.712Z,965.53
2022-11-19T10:36:03.693Z,965.50
2022-11-19T10:37:03.676Z,965.52
2022-11-19T10:38:03.685Z,965.48
2022-11-19T10:39:03.633Z,965.45
2022-11-19T10:40:03.620Z,965.52
2022-11-19T10:41:03.601Z,965.50
2022-11-19T10:42:03.578Z,965.50
2022-11-19T10:43:03.583Z,965.50
2022-11-19T10:44:03.544Z,965.51
2022-11-19T10:45:03.524Z,965.44
2022-11-19T10:46:03.542Z,965.44
2022-11-19T10:47:03.480Z,965.47
2022-11-19T10:48:08.825Z,965.42
2022-11-19T10:49:05.444Z,965.40
2022-11-19T10:50:06.966Z,965.41
2022-11-19T10:51:05.406Z,965.36
2022-11-19T10:52:03.394Z,965.40
2022-11-19T10:53:03.405Z,965.40
2022-11-19T10:54:03.355Z,965.36
2022-11-19T10:55:03.379Z,965.39
2022-11-19T10:56:03.447Z,965.37
2022-11-19T10:57:03.291Z,965.37
2022-11-19T10:58:03.303Z,965.37
2022-11-19T10:59:03.291Z,965.40
2022-11-19T11:00:03.248Z,965.40
2022-11-19T11:01:03.271Z,965.39
2022-11-19T11:02:03.207Z,965.43
2022-11-19T11:03:03.212Z,965.45
2022-11-19T11:04:03.166Z,965.48
2022-11-19T11:05:03.145Z,965.46
2022-11-19T11:06:03.125Z,965.43
2022-11-19T11:07:03.166Z,965.46
2022-11-19T11:08:03.131Z,965.43
2022-11-19T11:09:03.067Z,965.54
2022-11-19T11:10:03.090Z,965.49
2022-11-19T11:11:03.028Z,965.53
2022-11-19T11:12:03.010Z,965.51
2022-11-19T11:13:03.010Z,965.45
2022-11-19T11:14:02.988Z,965.56
2022-11-19T11:15:02.978Z,965.52
2022-11-19T11:16:02.932Z,965.52
2022-11-19T11:17:02.916Z,965.53
2022-11-19T11:18:02.935Z,965.52
2022-11-19T11:19:03.822Z,965.59
2022-11-19T11:20:02.865Z,965.53
2022-11-19T11:21:02.855Z,965.52
2022-11-19T11:22:02.828Z,965.58
2022-11-19T11:23:02.838Z,965.55
2022-11-19T11:24:03.791Z,965.61
2022-11-19T11:25:07.019Z,965.58
2022-11-19T11:26:03.757Z,965.60
2022-11-19T11:27:02.749Z,965.64
2022-11-19T11:28:02.745Z,965.65
2022-11-19T11:29:02.702Z,965.66
2022-11-19T11:30:02.703Z,965.61
2022-11-19T11:31:02.663Z,965.64
2022-11-19T11:32:02.637Z,965.63
2022-11-19T11:33:06.492Z,965.63
2022-11-19T11:34:04.617Z,965.59
2022-11-19T11:35:07.489Z,965.56
2022-11-19T11:36:04.593Z,965.55
2022-11-19T11:37:02.559Z,965.58
2022-11-19T11:38:02.568Z,965.49
2022-11-19T11:39:02.522Z,965.53
2022-11-19T11:40:02.509Z,965.53
2022-11-19T11:41:30.317Z,965.50
2022-11-19T11:42:06.247Z,965.54
2022-11-19T11:43:03.477Z,965.62
2022-11-19T11:44:02.428Z,965.58
2022-11-19T11:45:02.421Z,965.56
2022-11-19T11:46:02.383Z,965.59
2022-11-19T11:47:03.373Z,965.59
2022-11-19T11:48:02.382Z,965.56
2022-11-19T11:49:08.270Z,965.57
2022-11-19T11:50:04.336Z,965.52
2022-11-19T11:51:02.302Z,965.56
2022-11-19T11:52:02.281Z,965.52
2022-11-19T11:53:02.286Z,965.54
2022-11-19T11:54:02.243Z,965.51
2022-11-19T11:55:02.230Z,965.48
2022-11-19T11:56:02.211Z,965.52
2022-11-19T11:57:02.192Z,965.50
2022-11-19T11:58:02.206Z,965.49
2022-11-19T11:59:02.156Z,965.50
2022-11-19T12:00:02.145Z,965.43
2022-11-19T12:01:02.116Z,965.48
2022-11-19T12:02:02.188Z,965.50
2022-11-19T12:03:02.109Z,965.57
2022-11-19T12:04:02.058Z,965.56
2022-11-19T12:05:02.124Z,965.51
2022-11-19T12:06:02.023Z,965.49
2022-11-19T12:07:02.050Z,965.43
2022-11-19T12:08:02.014Z,965.41
2022-11-19T12:09:01.963Z,965.40
2022-11-19T12:10:01.947Z,965.41
2022-11-19T12:11:01.938Z,965.40
2022-11-19T12:12:01.909Z,965.36
2022-11-19T12:13:01.920Z,965.33
2022-11-19T12:14:04.325Z,965.35
2022-11-19T12:15:01.861Z,965.36
2022-11-19T12:16:01.828Z,965.46
2022-11-19T12:17:01.816Z,965.45
2022-11-19T12:18:01.817Z,965.45
2022-11-19T12:19:01.765Z,965.44
2022-11-19T12:20:01.745Z,965.53
2022-11-19T12:21:01.753Z,965.49
2022-11-19T12:22:01.717Z,965.44
2022-11-19T12:23:01.722Z,965.46
2022-11-19T12:24:01.674Z,965.50
2022-11-19T12:25:01.667Z,965.50
2022-11-19T12:26:01.632Z,965.53
2022-11-19T12:27:01.642Z,965.55
2022-11-19T12:28:01.624Z,965.51